North Springfield, VT (05150)

12:20 PM EDT on September 04, 2015 (GMT -0400)
Gassetts / North Springfield | | Change Station
CLOSE
Current Station
Personal Weather Station
Location: Chester, VT
Elevation: 594 ft
Nearby Weather Stations

Elev 594 ft 43.34 °N, 72.55 °W | Updated 4 seconds ago

Overcast
Overcast
77.2 °F
Feels Like 79 °F
N
3.1
Wind Variable Wind from SE
Gusts 3.1 mph

Today
High -- | Low -- °F
--% Chance of Precip.
Yesterday
High -- | Low -- °F
Precip. -- in
6:17 AM 7:20 PM
Waning Gibbous, 58% visible
Pressure 30.21 in
Visibility 10.0 miles
Clouds Overcast 4100 ft
Heat Index 79 °F
Dew Point 60 °F
Humidity 55%
Rainfall 0.00 in
Snow Depth Not available.
UV 2 out of 12
Pollen 7.00 out of 12
Air Quality Not available.
Flu Activity Not available.
METAR KVSF 041554Z AUTO 08004KT 10SM OVC041 21/10 A3021 RMK AO2 SLP229 T02110100
Pressure 30.21 in
Visibility 10.0 miles
Clouds Overcast 4100 ft
Heat Index 79 °F
Dew Point 60 °F
Humidity 55%
Rainfall 0.00 in
Snow Depth Not available.
UV 2 out of 12
Pollen 7.00 out of 12
Air Quality Not available.
Flu Activity Not available.
METAR KVSF 041554Z AUTO 08004KT 10SM OVC041 21/10 A3021 RMK AO2 SLP229 T02110100

10-Day Weather Forecast

×

Almanac

Astronomy

Sep. 04, 2015 Rise Set
Actual Time
Civil Twilight
Nautical Twilight
Astronomical Twilight
Moon
Length of Visible Light
Length of Day
Tomorrow will be .
, % of the Moon is Illuminated

Today's Extremes

State Highs State Lows

Community

WunderPhotos

Upload Photos

1,852,218 photos uploaded!

WunderBlogs® & News

Nearby

Air Quality

  Air Quality AQ Index Pollutant
Not available.

Snow Depth

Station Depth Elevation

Earthquake Activity

City Distance Mag. Time & Date
Minimum magnitude displayed is 2.5.

Coastal Water Temperatures

Place Temperature

Stations

Nearby Weather Stations

Station Location Temp. Windchill Dew Point Humidity Wind Precip. Elev Updated Type